KLVN

Airlake Airport

Minneapolis, Minnesota, USA
METAR KLVN 220935Z AUTO 09004KT 10SM OVC050 13/13 A3002 RMK AO2
Observed Flight Rules
May-22 @ 09:35 UTC (32 minutes ago) Visual Flight Rules
Wind Visibility Clouds
90° at 4 knots 10 miles
  • Overcast at 5,000' AGL
Temperatures Readings
Current 13°C / 55°F
Dewpoint 13°C / 55°F
Humidity 100%
Altimeter 30.02" Hg
Pressure 1017 hPa
Elevation 293
METAR KLVN 220935Z AUTO 09004KT 10SM OVC050 13/13 A3002 RMK AO2
Observed Flight Rules
May-22 @ 09:35 UTC
(32 minutes ago)
VFR
Wind Visibility
90° at 4 knots 10 miles
Clouds
  • Overcast at 5,000' AGL
Temperature Dewpoint
13°C / 55°F 13°C / 55°F
Humidity Altimeter Pressure
100% 30.02" Hg 1017 hPa